CZFN/ZFN METAR and TAF weather

Enter ICAO airport designator
Station Type Date Time Source
CZFN METAR 2018/10/19 23:00 UTC NOAA

CZFN 192300Z 12013G18KT 20SM BKN015 01/M01 A2975 RMK ST7 1.1 / -6.4 / SNW CVR / ONE LOOSE / LAST STFD OBS/NEXT 221500Z SLP084


Station Type Date Time Source
CZFN Decoded METAR 2018/10/19 23:00 UTC NOAA

Fort Norman Airport, Canada (CZFN) 64-55N 125-34W
Oct 19, 2018 - 07:00 PM EDT / 2018.10.19 2300 UTC
Wind: from the ESE (120 degrees) at 15 MPH (13 KT) gusting to 21 MPH (18 KT):0
Visibility: 20 mile(s):0
Sky conditions: mostly cloudy
Temperature: 33 F (1 C)
Windchill: 23 F (-5 C):1
Dew Point: 30 F (-1 C)
Relative Humidity: 86%
Pressure (altimeter): 29.75 in. Hg (1007 hPa)
ob: CZFN 192300Z 12013G18KT 20SM BKN015 01/M01 A2975 RMK ST7 1.1 / -6.4 / SNW CVR / ONE LOOSE / LAST STFD OBS/NEXT 221500Z SLP084
cycle: 23

Station Type Date Time Source
CZFN TAF UTC NOAA

Error!


Example: see airport list